createdAt,value
2024-02-08T06:01:36.360Z,5.18
2024-02-08T06:02:09.317Z,5.53
2024-02-08T06:03:09.256Z,4.90
2024-02-08T06:04:09.295Z,5.49
2024-02-08T06:05:09.298Z,5.13
2024-02-08T06:06:09.330Z,5.20
2024-02-08T06:07:09.847Z,4.99
2024-02-08T06:08:09.390Z,5.85
2024-02-08T06:09:09.327Z,4.87
2024-02-08T06:10:09.717Z,5.44
2024-02-08T06:11:09.267Z,5.77
2024-02-08T06:12:09.458Z,5.44
2024-02-08T06:13:09.350Z,5.20
2024-02-08T06:14:09.269Z,5.07
2024-02-08T06:15:09.268Z,4.83
2024-02-08T06:16:09.461Z,5.29
2024-02-08T06:17:09.293Z,5.25
2024-02-08T06:18:09.330Z,4.96
2024-02-08T06:19:09.428Z,5.27
2024-02-08T06:20:09.326Z,5.16
2024-02-08T06:21:09.267Z,4.93
2024-02-08T06:22:09.328Z,5.32
2024-02-08T06:23:09.280Z,5.30
2024-02-08T06:24:09.273Z,4.44
2024-02-08T06:25:09.363Z,5.19
2024-02-08T06:26:09.778Z,5.52
2024-02-08T06:27:09.326Z,5.27
2024-02-08T06:28:09.354Z,5.19
2024-02-08T06:29:09.311Z,5.16
2024-02-08T06:30:09.423Z,5.28
2024-02-08T06:31:09.423Z,5.20
2024-02-08T06:32:09.338Z,4.40
2024-02-08T06:33:09.995Z,5.09
2024-02-08T06:34:09.461Z,5.36
2024-02-08T06:35:09.377Z,4.75
2024-02-08T06:36:09.300Z,5.53
2024-02-08T06:37:09.337Z,4.51
2024-02-08T06:38:09.329Z,5.02
2024-02-08T06:39:09.358Z,5.15
2024-02-08T06:40:09.421Z,4.76
2024-02-08T06:41:09.325Z,4.58
2024-02-08T06:42:09.334Z,4.70
2024-02-08T06:43:09.408Z,4.75
2024-02-08T06:44:09.355Z,5.31
2024-02-08T06:45:09.310Z,5.03
2024-02-08T06:46:09.366Z,5.65
2024-02-08T06:47:09.331Z,6.43
2024-02-08T06:48:09.426Z,5.88
2024-02-08T06:49:09.412Z,5.75
2024-02-08T06:50:09.374Z,5.31
2024-02-08T06:51:09.408Z,5.17
2024-02-08T06:52:09.350Z,5.57
2024-02-08T06:53:09.353Z,5.34
2024-02-08T06:54:09.350Z,5.37
2024-02-08T06:55:09.374Z,5.38
2024-02-08T06:56:09.358Z,4.94
2024-02-08T06:57:09.332Z,5.17
2024-02-08T06:58:09.395Z,5.45
2024-02-08T06:59:09.410Z,5.20
2024-02-08T07:00:09.468Z,5.55
2024-02-08T07:01:09.509Z,5.71
2024-02-08T07:02:09.416Z,5.32
2024-02-08T07:03:09.578Z,6.10
2024-02-08T07:04:09.563Z,5.59
2024-02-08T07:05:12.878Z,5.88
2024-02-08T07:06:09.555Z,5.35
2024-02-08T07:07:09.431Z,5.31
2024-02-08T07:08:09.497Z,5.93
2024-02-08T07:09:09.399Z,4.75
2024-02-08T07:10:09.466Z,5.22
2024-02-08T07:11:09.377Z,5.48
2024-02-08T07:12:09.406Z,5.21
2024-02-08T07:13:09.423Z,5.44
2024-02-08T07:14:09.354Z,5.33
2024-02-08T07:15:09.391Z,5.85
2024-02-08T07:16:09.466Z,5.70
2024-02-08T07:17:09.371Z,5.28
2024-02-08T07:18:11.641Z,5.73
2024-02-08T07:19:09.894Z,5.23
2024-02-08T07:20:09.475Z,5.62
2024-02-08T07:21:09.422Z,5.22
2024-02-08T07:22:09.411Z,5.28
2024-02-08T07:23:09.380Z,4.80
2024-02-08T07:24:09.449Z,5.10
2024-02-08T07:25:09.650Z,5.41
2024-02-08T07:26:09.376Z,5.79
2024-02-08T07:27:09.421Z,5.62
2024-02-08T07:28:09.510Z,5.35
2024-02-08T07:29:09.430Z,5.23
2024-02-08T07:30:09.376Z,5.26
2024-02-08T07:31:09.420Z,5.61
2024-02-08T07:32:09.393Z,5.82
2024-02-08T07:33:09.568Z,5.73
2024-02-08T07:34:09.445Z,5.56
2024-02-08T07:35:09.675Z,6.28
2024-02-08T07:36:09.516Z,5.61
2024-02-08T07:37:09.447Z,5.55
2024-02-08T07:38:09.570Z,5.12
2024-02-08T07:39:09.635Z,6.25
2024-02-08T07:40:09.739Z,5.45
2024-02-08T07:41:09.653Z,4.49
2024-02-08T07:42:09.719Z,3.18
2024-02-08T07:43:09.872Z,4.88
2024-02-08T07:44:09.838Z,3.90
2024-02-08T07:45:09.925Z,5.53
2024-02-08T07:46:10.129Z,4.81
2024-02-08T07:47:10.042Z,4.81
2024-02-08T07:48:10.193Z,5.09
2024-02-08T07:49:10.197Z,5.07
2024-02-08T07:50:10.336Z,5.52
2024-02-08T07:51:10.205Z,5.11
2024-02-08T07:52:10.469Z,5.32
2024-02-08T07:53:10.734Z,4.88
2024-02-08T07:54:10.432Z,5.03
2024-02-08T07:55:10.602Z,5.32
2024-02-08T07:56:10.629Z,5.49
2024-02-08T07:57:10.686Z,4.25
2024-02-08T07:58:10.782Z,4.39
2024-02-08T07:59:10.771Z,4.70
2024-02-08T08:00:10.811Z,5.23
2024-02-08T08:01:10.975Z,4.33
2024-02-08T08:02:11.102Z,4.82
2024-02-08T08:03:10.962Z,4.40
2024-02-08T08:04:11.494Z,4.94
2024-02-08T08:05:11.173Z,4.82
2024-02-08T08:06:11.177Z,4.87
2024-02-08T08:07:11.508Z,4.89
2024-02-08T08:08:11.196Z,5.52
2024-02-08T08:09:11.347Z,4.05
2024-02-08T08:10:11.439Z,5.05
2024-02-08T08:11:11.351Z,4.54
2024-02-08T08:12:11.422Z,4.35
2024-02-08T08:13:11.516Z,4.75
2024-02-08T08:14:11.508Z,4.81
2024-02-08T08:15:11.593Z,5.02
2024-02-08T08:16:11.640Z,4.62
2024-02-08T08:17:11.787Z,5.16
2024-02-08T08:18:11.731Z,5.47
2024-02-08T08:19:12.366Z,5.24
2024-02-08T08:20:11.967Z,5.18
2024-02-08T08:21:11.816Z,5.03
2024-02-08T08:22:11.947Z,4.88
2024-02-08T08:23:12.000Z,4.80
2024-02-08T08:24:11.976Z,5.29
2024-02-08T08:25:13.990Z,5.02
2024-02-08T08:26:11.975Z,5.21
2024-02-08T08:27:11.985Z,5.87
2024-02-08T08:28:12.268Z,5.64
2024-02-08T08:29:11.985Z,5.28
2024-02-08T08:30:12.016Z,4.90
2024-02-08T08:31:12.006Z,4.72
2024-02-08T08:32:11.983Z,4.73
2024-02-08T08:33:12.140Z,4.63
2024-02-08T08:34:12.059Z,4.03
2024-02-08T08:35:12.117Z,4.84
2024-02-08T08:36:11.949Z,4.94
2024-02-08T08:37:12.097Z,5.14
2024-02-08T08:38:12.097Z,5.07
2024-02-08T08:39:12.105Z,4.94
2024-02-08T08:40:12.200Z,4.71
2024-02-08T08:41:12.455Z,5.05
2024-02-08T08:42:12.113Z,5.45
2024-02-08T08:43:12.190Z,4.66
2024-02-08T08:44:12.018Z,4.77
2024-02-08T08:45:12.096Z,5.15
2024-02-08T08:46:12.378Z,5.02
2024-02-08T08:47:12.036Z,4.76
2024-02-08T08:48:12.195Z,5.07
2024-02-08T08:49:12.167Z,4.39
2024-02-08T08:50:12.057Z,4.66
2024-02-08T08:51:12.689Z,5.08
2024-02-08T08:52:12.009Z,4.44
2024-02-08T08:53:12.843Z,4.90
2024-02-08T08:54:12.011Z,4.98
2024-02-08T08:55:12.248Z,4.66
2024-02-08T08:56:12.082Z,4.35
2024-02-08T08:57:12.013Z,4.53
2024-02-08T08:58:12.052Z,4.48
2024-02-08T08:59:12.072Z,4.84
2024-02-08T09:00:12.017Z,5.75
2024-02-08T09:01:12.238Z,5.69
2024-02-08T09:02:12.120Z,6.21
2024-02-08T09:03:12.030Z,7.58
2024-02-08T09:04:12.917Z,7.61
2024-02-08T09:05:12.109Z,7.29
2024-02-08T09:06:12.055Z,7.04
2024-02-08T09:07:12.906Z,6.93
2024-02-08T09:08:12.158Z,6.62
2024-02-08T09:09:19.821Z,7.82
2024-02-08T09:10:19.848Z,6.88
2024-02-08T09:11:19.775Z,7.05
2024-02-08T09:12:19.832Z,7.25
2024-02-08T09:13:19.861Z,7.95
2024-02-08T09:14:19.760Z,7.69
2024-02-08T09:15:19.803Z,8.00
2024-02-08T09:16:19.849Z,8.23
2024-02-08T09:17:24.939Z,8.19
2024-02-08T09:18:20.931Z,8.47
2024-02-08T09:19:19.838Z,7.21
2024-02-08T09:20:19.975Z,6.90
2024-02-08T09:21:19.821Z,7.89
2024-02-08T09:22:20.119Z,6.82
2024-02-08T09:23:19.813Z,6.44
2024-02-08T09:24:19.949Z,6.62
2024-02-08T09:25:27.908Z,6.24
2024-02-08T09:26:20.799Z,5.75
2024-02-08T09:27:19.838Z,5.45
2024-02-08T09:28:19.908Z,5.38
2024-02-08T09:29:19.841Z,5.25
2024-02-08T09:30:19.865Z,5.82
2024-02-08T09:31:19.997Z,5.16
2024-02-08T09:32:19.856Z,5.39
2024-02-08T09:33:19.835Z,5.42
2024-02-08T09:34:19.910Z,5.57
2024-02-08T09:35:20.005Z,5.60
2024-02-08T09:36:19.820Z,5.45
2024-02-08T09:37:19.922Z,5.11
2024-02-08T09:38:19.885Z,5.73
2024-02-08T09:39:19.842Z,5.42
2024-02-08T09:40:19.907Z,4.75
2024-02-08T09:41:19.806Z,4.57
2024-02-08T09:42:19.829Z,4.74
2024-02-08T09:43:20.117Z,4.45
2024-02-08T09:44:19.904Z,5.05
2024-02-08T09:45:20.029Z,4.85
2024-02-08T09:46:20.092Z,4.81
2024-02-08T09:47:20.075Z,4.90
2024-02-08T09:48:20.254Z,4.76
2024-02-08T09:49:20.491Z,4.30
2024-02-08T09:50:20.370Z,4.09
2024-02-08T09:51:20.336Z,4.49
2024-02-08T09:52:20.494Z,4.44
2024-02-08T09:53:42.981Z,4.84
2024-02-08T09:54:42.993Z,4.24
2024-02-08T09:55:20.521Z,4.58
2024-02-08T09:56:43.028Z,4.31
2024-02-08T09:57:20.455Z,4.37
2024-02-08T09:58:20.531Z,3.75
2024-02-08T09:59:20.528Z,4.65
2024-02-08T10:00:20.493Z,4.38
2024-02-08T10:01:20.528Z,4.30
2024-02-08T10:02:20.543Z,4.29
2024-02-08T10:03:20.505Z,4.30
2024-02-08T10:04:20.705Z,4.74
2024-02-08T10:05:20.934Z,3.97
2024-02-08T10:06:20.501Z,4.20
2024-02-08T10:07:20.512Z,4.49
2024-02-08T10:08:20.531Z,4.77
2024-02-08T10:09:20.537Z,3.86
2024-02-08T10:10:20.473Z,4.54
2024-02-08T10:11:20.520Z,4.20
2024-02-08T10:12:20.671Z,4.74
2024-02-08T10:13:20.554Z,3.76
2024-02-08T10:14:20.509Z,4.36
2024-02-08T10:15:20.489Z,4.60
2024-02-08T10:16:20.615Z,4.23
2024-02-08T10:17:20.498Z,4.13
2024-02-08T10:18:20.562Z,4.26
2024-02-08T10:19:20.636Z,3.83
2024-02-08T10:20:20.625Z,4.88
2024-02-08T10:21:20.573Z,4.50
2024-02-08T10:22:20.680Z,4.56
2024-02-08T10:23:20.669Z,4.08
2024-02-08T10:24:20.656Z,4.12
2024-02-08T10:25:20.722Z,4.17
2024-02-08T10:26:20.723Z,4.19
2024-02-08T10:27:20.853Z,4.06
2024-02-08T10:28:20.795Z,3.17
2024-02-08T10:29:20.796Z,3.27
2024-02-08T10:30:20.833Z,2.61
2024-02-08T10:31:20.869Z,3.08
2024-02-08T10:32:20.913Z,2.66
2024-02-08T10:33:21.242Z,3.30
2024-02-08T10:34:21.696Z,2.60
2024-02-08T10:35:55.542Z,2.48
2024-02-08T10:36:23.148Z,2.93
2024-02-08T10:37:21.059Z,2.38
2024-02-08T10:38:20.980Z,2.20
2024-02-08T10:39:21.121Z,2.42
2024-02-08T10:40:21.077Z,2.64
2024-02-08T10:41:21.026Z,2.70
2024-02-08T10:42:22.337Z,2.86
2024-02-08T10:43:21.072Z,2.51
2024-02-08T10:44:21.008Z,2.86
2024-02-08T10:45:21.023Z,2.58
2024-02-08T10:46:21.055Z,2.73
2024-02-08T10:47:28.899Z,2.79
2024-02-08T10:48:22.066Z,2.64
2024-02-08T10:49:21.072Z,2.73
2024-02-08T10:50:22.154Z,2.88
2024-02-08T10:51:21.023Z,2.63
2024-02-08T10:52:22.097Z,2.65
2024-02-08T10:53:21.143Z,2.50
2024-02-08T10:54:21.039Z,2.96
2024-02-08T10:55:21.804Z,3.05
2024-02-08T10:56:21.002Z,2.88
2024-02-08T10:57:21.081Z,2.30
2024-02-08T10:58:21.223Z,2.94
2024-02-08T10:59:21.143Z,2.87
2024-02-08T11:00:21.252Z,3.29
2024-02-08T11:01:21.346Z,2.52
2024-02-08T11:02:21.218Z,2.95
2024-02-08T11:03:21.331Z,2.91
2024-02-08T11:04:21.381Z,2.72
2024-02-08T11:05:21.456Z,2.87
2024-02-08T11:06:21.439Z,3.07
2024-02-08T11:07:21.444Z,2.71
2024-02-08T11:08:22.344Z,2.88
2024-02-08T11:09:21.451Z,2.69
2024-02-08T11:10:21.523Z,2.89
2024-02-08T11:11:21.563Z,2.26
2024-02-08T11:12:21.525Z,2.98
2024-02-08T11:13:21.604Z,2.60
2024-02-08T11:14:21.696Z,2.64
2024-02-08T11:15:21.703Z,2.47
2024-02-08T11:16:22.528Z,2.53
2024-02-08T11:17:22.232Z,2.54
2024-02-08T11:18:21.754Z,2.62
2024-02-08T11:19:21.901Z,2.75
2024-02-08T11:20:21.860Z,3.06
2024-02-08T11:21:21.768Z,2.81
2024-02-08T11:22:21.861Z,2.96
2024-02-08T11:23:21.792Z,3.00
2024-02-08T11:24:24.546Z,2.89
2024-02-08T11:25:22.433Z,3.06
2024-02-08T11:26:21.789Z,2.87
2024-02-08T11:27:21.786Z,3.19
2024-02-08T11:28:26.628Z,3.23
2024-02-08T11:29:22.823Z,2.44
2024-02-08T11:30:21.867Z,2.39
2024-02-08T11:31:21.855Z,2.31
2024-02-08T11:32:21.866Z,2.21
2024-02-08T11:33:21.988Z,2.20
2024-02-08T11:34:22.119Z,1.98
2024-02-08T11:35:22.266Z,2.59
2024-02-08T11:36:22.070Z,2.38
2024-02-08T11:37:22.160Z,2.71
2024-02-08T11:38:22.205Z,2.42
2024-02-08T11:39:22.330Z,2.27
2024-02-08T11:40:22.316Z,2.33
2024-02-08T11:41:22.423Z,2.50
2024-02-08T11:42:22.389Z,2.45
2024-02-08T11:43:22.572Z,2.38
2024-02-08T11:44:22.396Z,2.34
2024-02-08T11:45:22.506Z,2.30
2024-02-08T11:46:22.491Z,1.90
2024-02-08T11:47:22.510Z,2.40
2024-02-08T11:48:22.498Z,2.32
2024-02-08T11:49:22.608Z,2.14
2024-02-08T11:50:22.658Z,2.32
2024-02-08T11:51:22.542Z,2.02
2024-02-08T11:52:22.576Z,1.78
2024-02-08T11:53:22.565Z,1.92
2024-02-08T11:54:22.525Z,1.93
2024-02-08T11:55:22.806Z,1.68
2024-02-08T11:56:22.580Z,1.94
2024-02-08T11:57:22.674Z,1.55
2024-02-08T11:58:22.698Z,1.69
2024-02-08T11:59:22.656Z,1.69
2024-02-08T12:00:22.707Z,1.76
2024-02-08T12:01:22.852Z,1.56
2024-02-08T12:02:22.676Z,1.97
2024-02-08T12:03:22.732Z,1.67
2024-02-08T12:04:22.896Z,1.68
2024-02-08T12:05:22.954Z,1.64
2024-02-08T12:06:23.222Z,1.87
2024-02-08T12:07:22.782Z,1.81
2024-02-08T12:08:26.335Z,1.73
2024-02-08T12:09:24.059Z,1.31
2024-02-08T12:10:22.880Z,1.91
2024-02-08T12:11:22.741Z,1.57
2024-02-08T12:12:22.776Z,1.79
2024-02-08T12:13:22.881Z,1.67
2024-02-08T12:14:27.065Z,2.13
2024-02-08T12:15:22.758Z,2.00
2024-02-08T12:16:22.797Z,1.61
2024-02-08T12:17:22.796Z,2.21
2024-02-08T12:18:22.904Z,2.03
2024-02-08T12:19:23.023Z,2.00
2024-02-08T12:20:22.825Z,1.64
2024-02-08T12:21:22.817Z,1.82
2024-02-08T12:22:22.866Z,1.81
2024-02-08T12:23:22.834Z,1.75
2024-02-08T12:24:22.784Z,1.51
2024-02-08T12:25:22.809Z,2.19
2024-02-08T12:26:22.824Z,1.97
2024-02-08T12:27:22.889Z,1.81
2024-02-08T12:28:22.972Z,1.87
2024-02-08T12:29:22.927Z,1.67
2024-02-08T12:30:22.978Z,1.42
2024-02-08T12:31:23.101Z,1.52
2024-02-08T12:32:23.103Z,1.97
2024-02-08T12:33:23.195Z,2.16
2024-02-08T12:34:23.250Z,2.05
2024-02-08T12:35:23.349Z,2.02
2024-02-08T12:36:23.215Z,2.15
2024-02-08T12:37:23.275Z,2.08
2024-02-08T12:38:23.205Z,2.00
2024-02-08T12:39:23.259Z,2.12
2024-02-08T12:40:23.485Z,1.85
2024-02-08T12:41:23.361Z,1.95
2024-02-08T12:42:23.431Z,1.71
2024-02-08T12:43:23.541Z,2.18
2024-02-08T12:44:23.448Z,1.88
2024-02-08T12:45:23.552Z,1.77
2024-02-08T12:46:23.640Z,2.04
2024-02-08T12:47:23.590Z,1.58
2024-02-08T12:48:23.754Z,1.68
2024-02-08T12:49:23.872Z,1.86
2024-02-08T12:50:27.070Z,1.93
2024-02-08T12:51:24.835Z,2.16
2024-02-08T12:52:23.854Z,2.54
2024-02-08T12:53:23.688Z,1.92
2024-02-08T12:54:23.724Z,2.15
2024-02-08T12:55:23.741Z,2.12
2024-02-08T12:56:23.820Z,1.86
2024-02-08T12:57:23.738Z,1.37
2024-02-08T12:58:23.747Z,2.15
2024-02-08T12:59:23.722Z,1.71
2024-02-08T13:00:23.884Z,1.59
2024-02-08T13:01:23.807Z,1.77
2024-02-08T13:02:23.725Z,1.82
2024-02-08T13:03:23.768Z,2.20
2024-02-08T13:04:23.942Z,2.09
2024-02-08T13:05:23.851Z,2.11
2024-02-08T13:06:23.738Z,2.61
2024-02-08T13:07:23.929Z,2.43
2024-02-08T13:08:23.857Z,1.55
2024-02-08T13:09:23.796Z,2.26
2024-02-08T13:10:23.768Z,1.98
2024-02-08T13:11:23.718Z,1.89
2024-02-08T13:12:23.698Z,2.13
2024-02-08T13:13:23.794Z,1.83
2024-02-08T13:14:23.920Z,1.72
2024-02-08T13:15:23.999Z,1.76
2024-02-08T13:16:24.039Z,1.52
2024-02-08T13:17:23.905Z,1.38
2024-02-08T13:18:23.996Z,1.81
2024-02-08T13:19:23.957Z,1.42
2024-02-08T13:20:24.147Z,1.71
2024-02-08T13:21:24.004Z,1.66
2024-02-08T13:22:23.966Z,1.39
2024-02-08T13:23:23.987Z,1.56
2024-02-08T13:24:24.127Z,1.28
2024-02-08T13:25:24.122Z,1.33
2024-02-08T13:26:32.962Z,1.35
2024-02-08T13:27:25.098Z,1.40
2024-02-08T13:28:24.107Z,1.24
2024-02-08T13:29:24.023Z,1.35
2024-02-08T13:30:24.063Z,1.35
2024-02-08T13:31:24.089Z,1.40
2024-02-08T13:32:24.076Z,1.24
2024-02-08T13:33:24.183Z,1.54
2024-02-08T13:34:28.782Z,1.28
2024-02-08T13:35:25.387Z,1.56
2024-02-08T13:36:24.091Z,1.91
2024-02-08T13:37:24.188Z,1.01
2024-02-08T13:38:24.381Z,0.96
2024-02-08T13:39:24.053Z,1.29
2024-02-08T13:40:24.595Z,1.72
2024-02-08T13:41:24.266Z,1.03
2024-02-08T13:42:29.322Z,1.05
2024-02-08T13:43:25.101Z,1.18
2024-02-08T13:44:24.123Z,1.18
2024-02-08T13:45:24.071Z,1.08
2024-02-08T13:46:24.611Z,1.04
2024-02-08T13:47:25.125Z,0.82
2024-02-08T13:48:24.122Z,1.19
2024-02-08T13:49:24.142Z,1.41
2024-02-08T13:50:24.096Z,1.36
2024-02-08T13:51:24.041Z,1.08
2024-02-08T13:52:24.097Z,1.18
2024-02-08T13:53:24.093Z,1.32
2024-02-08T13:54:24.081Z,1.64
2024-02-08T13:55:25.774Z,1.17
2024-02-08T13:56:24.103Z,1.00
2024-02-08T13:57:24.736Z,0.98
2024-02-08T13:58:24.202Z,1.29
2024-02-08T13:59:24.168Z,1.14
2024-02-08T14:00:24.081Z,1.14
2024-02-08T14:01:24.120Z,1.52
2024-02-08T14:02:24.074Z,1.06
2024-02-08T14:03:24.751Z,0.93
2024-02-08T14:04:24.122Z,1.05
2024-02-08T14:05:24.155Z,1.18
2024-02-08T14:06:27.220Z,0.85
2024-02-08T14:07:24.113Z,0.91
2024-02-08T14:08:24.093Z,1.36
2024-02-08T14:09:24.088Z,1.19
2024-02-08T14:10:24.105Z,1.27
2024-02-08T14:11:24.101Z,1.28
2024-02-08T14:12:24.075Z,0.90
2024-02-08T14:13:24.184Z,1.43
2024-02-08T14:14:24.061Z,1.21
2024-02-08T14:15:24.164Z,1.19
2024-02-08T14:16:24.137Z,1.26
2024-02-08T14:17:24.074Z,0.97
2024-02-08T14:18:28.607Z,1.12
2024-02-08T14:19:25.138Z,1.04
2024-02-08T14:20:24.105Z,0.95
2024-02-08T14:21:24.156Z,1.16
2024-02-08T14:22:24.133Z,1.02
2024-02-08T14:23:24.109Z,0.86
2024-02-08T14:24:24.117Z,0.77
2024-02-08T14:25:24.152Z,1.20
2024-02-08T14:26:24.081Z,0.82
2024-02-08T14:27:24.116Z,1.02
2024-02-08T14:28:24.105Z,0.97
2024-02-08T14:29:24.181Z,1.11
2024-02-08T14:30:24.129Z,0.99
2024-02-08T14:31:24.208Z,0.88
2024-02-08T14:32:28.708Z,1.22
2024-02-08T14:33:24.204Z,0.82
2024-02-08T14:34:24.156Z,1.32
2024-02-08T14:35:24.154Z,1.02
2024-02-08T14:36:24.139Z,1.03
2024-02-08T14:37:24.249Z,1.31
2024-02-08T14:38:24.171Z,0.88
2024-02-08T14:39:24.148Z,1.05
2024-02-08T14:40:24.133Z,0.87
2024-02-08T14:41:24.119Z,1.09
2024-02-08T14:42:24.148Z,1.03
2024-02-08T14:43:24.684Z,0.92
2024-02-08T14:44:24.131Z,0.93
2024-02-08T14:45:24.154Z,1.37
2024-02-08T14:46:24.141Z,1.16
2024-02-08T14:47:24.331Z,1.16
2024-02-08T14:48:24.146Z,1.14
2024-02-08T14:49:26.419Z,0.94
2024-02-08T14:50:24.179Z,1.13
2024-02-08T14:51:24.165Z,0.75
2024-02-08T14:52:24.141Z,1.16
2024-02-08T14:53:24.124Z,1.42
2024-02-08T14:54:24.165Z,1.37
2024-02-08T14:55:24.268Z,1.37
2024-02-08T14:56:24.823Z,1.56
2024-02-08T14:57:24.167Z,1.21
2024-02-08T14:58:24.245Z,1.25
2024-02-08T14:59:24.151Z,1.27
2024-02-08T15:00:24.186Z,2.01
2024-02-08T15:01:24.214Z,1.83
2024-02-08T15:02:25.053Z,1.72
2024-02-08T15:03:24.231Z,1.68
2024-02-08T15:04:24.206Z,1.22
2024-02-08T15:05:24.288Z,1.74
2024-02-08T15:06:24.162Z,2.19
2024-02-08T15:07:24.165Z,1.44
2024-02-08T15:08:24.235Z,1.81
2024-02-08T15:09:24.145Z,1.47
2024-02-08T15:10:24.256Z,1.34
2024-02-08T15:11:24.210Z,1.31
2024-02-08T15:12:24.174Z,1.65
2024-02-08T15:13:24.223Z,1.59
2024-02-08T15:14:24.172Z,1.32
2024-02-08T15:15:24.179Z,1.42
2024-02-08T15:16:24.253Z,1.84
2024-02-08T15:17:24.205Z,2.13
2024-02-08T15:18:24.264Z,1.40
2024-02-08T15:19:24.265Z,1.92
2024-02-08T15:20:24.165Z,1.68
2024-02-08T15:21:24.249Z,2.22
2024-02-08T15:22:24.281Z,2.11
2024-02-08T15:23:24.179Z,1.67
2024-02-08T15:24:24.239Z,1.71
2024-02-08T15:25:24.240Z,1.81
2024-02-08T15:26:24.219Z,1.57
2024-02-08T15:27:24.192Z,1.58
2024-02-08T15:28:24.218Z,2.04
2024-02-08T15:29:24.214Z,2.03
2024-02-08T15:30:24.235Z,1.74
2024-02-08T15:31:24.266Z,1.81
2024-02-08T15:32:24.270Z,1.61
2024-02-08T15:33:24.241Z,2.08
2024-02-08T15:34:24.358Z,1.72
2024-02-08T15:35:24.341Z,1.70
2024-02-08T15:36:24.305Z,1.82
2024-02-08T15:37:24.312Z,1.76
2024-02-08T15:38:24.318Z,1.80
2024-02-08T15:39:24.344Z,1.48
2024-02-08T15:40:24.334Z,1.78
2024-02-08T15:41:24.497Z,1.87
2024-02-08T15:42:24.480Z,2.15
2024-02-08T15:43:24.492Z,1.72
2024-02-08T15:44:24.504Z,2.09
2024-02-08T15:45:24.538Z,1.61
2024-02-08T15:46:24.551Z,2.11
2024-02-08T15:47:24.615Z,1.84
2024-02-08T15:48:24.758Z,1.83
2024-02-08T15:49:24.765Z,1.89
2024-02-08T15:50:24.698Z,1.86
2024-02-08T15:51:24.718Z,2.23
2024-02-08T15:52:24.760Z,1.48
2024-02-08T15:53:24.768Z,1.92
2024-02-08T15:54:24.798Z,1.45
2024-02-08T15:55:24.924Z,2.01
2024-02-08T15:56:24.841Z,2.00
2024-02-08T15:57:24.822Z,1.88
2024-02-08T15:58:24.910Z,2.05
2024-02-08T15:59:24.846Z,1.79
2024-02-08T16:00:24.881Z,2.27
2024-02-08T16:01:24.994Z,1.79
2024-02-08T16:02:25.110Z,1.80
2024-02-08T16:03:25.351Z,1.79
2024-02-08T16:04:24.950Z,2.40
2024-02-08T16:05:25.932Z,2.03
2024-02-08T16:06:26.816Z,2.44
2024-02-08T16:07:24.992Z,1.84
2024-02-08T16:08:24.951Z,1.95
2024-02-08T16:09:25.185Z,1.70
2024-02-08T16:10:25.040Z,1.97
2024-02-08T16:11:24.968Z,1.69
2024-02-08T16:12:24.927Z,1.87
2024-02-08T16:13:24.931Z,1.43
2024-02-08T16:14:24.911Z,1.79
2024-02-08T16:15:25.131Z,1.89
2024-02-08T16:16:25.007Z,1.77
2024-02-08T16:17:25.032Z,2.04
2024-02-08T16:18:25.080Z,1.86
2024-02-08T16:19:25.153Z,1.60
2024-02-08T16:20:25.888Z,1.61
2024-02-08T16:21:24.948Z,2.02
2024-02-08T16:22:25.047Z,1.76
2024-02-08T16:23:24.975Z,2.27
2024-02-08T16:24:24.974Z,2.08
2024-02-08T16:25:25.056Z,2.15
2024-02-08T16:26:25.048Z,1.64
2024-02-08T16:27:24.986Z,1.89
2024-02-08T16:28:25.257Z,1.69
2024-02-08T16:29:25.094Z,1.95
2024-02-08T16:30:25.051Z,1.49
2024-02-08T16:31:25.041Z,1.46
2024-02-08T16:32:25.005Z,1.90
2024-02-08T16:33:25.072Z,1.65
2024-02-08T16:34:25.234Z,1.68
2024-02-08T16:35:25.091Z,1.32
2024-02-08T16:36:25.064Z,1.83
2024-02-08T16:37:25.054Z,1.62
2024-02-08T16:38:24.999Z,1.65
2024-02-08T16:39:25.051Z,1.59
2024-02-08T16:40:25.082Z,1.72
2024-02-08T16:41:25.018Z,1.64
2024-02-08T16:42:25.133Z,1.42
2024-02-08T16:43:25.051Z,1.73
2024-02-08T16:44:25.105Z,1.70
2024-02-08T16:45:24.987Z,1.85
2024-02-08T16:46:25.059Z,1.91
2024-02-08T16:47:25.060Z,1.53
2024-02-08T16:48:25.363Z,1.74
2024-02-08T16:49:25.063Z,1.88
2024-02-08T16:50:25.041Z,1.66
2024-02-08T16:51:25.055Z,1.54
2024-02-08T16:52:25.090Z,1.76
2024-02-08T16:53:25.092Z,1.86
2024-02-08T16:54:25.123Z,1.65
2024-02-08T16:55:25.136Z,1.63
2024-02-08T16:56:25.067Z,1.51
2024-02-08T16:57:25.057Z,1.69
2024-02-08T16:58:25.131Z,1.64
2024-02-08T16:59:25.116Z,1.71
2024-02-08T17:00:25.119Z,1.53
2024-02-08T17:01:25.195Z,1.84
2024-02-08T17:02:25.179Z,1.72
2024-02-08T17:03:25.133Z,1.76
2024-02-08T17:04:25.339Z,1.52
2024-02-08T17:05:25.454Z,1.65
2024-02-08T17:06:25.286Z,1.58
2024-02-08T17:07:25.496Z,1.45
2024-02-08T17:08:25.389Z,1.79
2024-02-08T17:09:25.743Z,1.59
2024-02-08T17:10:25.423Z,1.55
2024-02-08T17:11:25.470Z,1.80
2024-02-08T17:12:25.434Z,1.20
2024-02-08T17:13:25.551Z,1.36
2024-02-08T17:14:25.488Z,1.72
2024-02-08T17:15:25.613Z,1.62
2024-02-08T17:16:25.568Z,1.71
2024-02-08T17:17:25.573Z,1.53
2024-02-08T17:18:25.853Z,2.04
2024-02-08T17:19:25.695Z,1.67
2024-02-08T17:20:25.511Z,1.89
2024-02-08T17:21:25.584Z,1.90
2024-02-08T17:22:25.623Z,1.86
2024-02-08T17:23:25.615Z,1.54
2024-02-08T17:24:25.647Z,1.32
2024-02-08T17:25:26.449Z,1.95
2024-02-08T17:26:25.645Z,1.68
2024-02-08T17:27:25.662Z,1.67
2024-02-08T17:28:25.764Z,1.78
2024-02-08T17:29:25.718Z,1.71
2024-02-08T17:30:25.764Z,1.65
2024-02-08T17:31:25.800Z,1.53
2024-02-08T17:32:26.163Z,1.54
2024-02-08T17:33:25.863Z,1.73
2024-02-08T17:34:25.907Z,1.47
2024-02-08T17:35:26.643Z,1.69
2024-02-08T17:36:28.318Z,1.85
2024-02-08T17:37:25.991Z,1.82
2024-02-08T17:38:25.841Z,1.58
2024-02-08T17:39:26.411Z,1.40
2024-02-08T17:40:25.812Z,1.78
2024-02-08T17:41:25.833Z,1.46
2024-02-08T17:42:25.825Z,1.64
2024-02-08T17:43:25.979Z,1.54
2024-02-08T17:44:25.852Z,1.54
2024-02-08T17:45:25.910Z,1.54
2024-02-08T17:46:26.054Z,1.68
2024-02-08T17:47:25.896Z,1.73
2024-02-08T17:48:25.931Z,1.74
2024-02-08T17:49:25.980Z,1.65
2024-02-08T17:50:25.909Z,1.55
2024-02-08T17:51:25.855Z,1.33
2024-02-08T17:52:25.901Z,1.62
2024-02-08T17:53:25.861Z,1.72
2024-02-08T17:54:25.951Z,1.62
2024-02-08T17:55:25.874Z,1.26
2024-02-08T17:56:25.871Z,1.39
2024-02-08T17:57:26.189Z,1.57
2024-02-08T17:58:25.965Z,1.42
2024-02-08T17:59:25.873Z,1.69
2024-02-08T18:00:49.516Z,1.48
